sensor_id;sensor_type;location;lat;lon;timestamp;P1;durP1;ratioP1;P2;durP2;ratioP2
6840;SDS011;3458;53.678;14.080;2024-02-21T00:01:47;16.00;;;5.67;;
6840;SDS011;3458;53.678;14.080;2024-02-21T00:04:12;22.37;;;5.57;;
6840;SDS011;3458;53.678;14.080;2024-02-21T00:06:38;17.43;;;5.27;;
6840;SDS011;3458;53.678;14.080;2024-02-21T00:09:03;25.17;;;5.80;;
6840;SDS011;3458;53.678;14.080;2024-02-21T00:11:29;26.53;;;7.10;;
6840;SDS011;3458;53.678;14.080;2024-02-21T00:13:54;29.43;;;5.70;;
6840;SDS011;3458;53.678;14.080;2024-02-21T00:16:20;23.57;;;5.10;;
6840;SDS011;3458;53.678;14.080;2024-02-21T00:18:46;22.97;;;6.77;;
6840;SDS011;3458;53.678;14.080;2024-02-21T00:21:11;34.87;;;6.30;;
6840;SDS011;3458;53.678;14.080;2024-02-21T00:23:43;28.47;;;5.47;;
6840;SDS011;3458;53.678;14.080;2024-02-21T00:26:10;34.63;;;6.93;;
6840;SDS011;3458;53.678;14.080;2024-02-21T00:28:36;39.00;;;5.80;;
6840;SDS011;3458;53.678;14.080;2024-02-21T00:31:02;38.00;;;6.07;;
6840;SDS011;3458;53.678;14.080;2024-02-21T00:33:27;24.30;;;6.57;;
6840;SDS011;3458;53.678;14.080;2024-02-21T00:35:53;23.17;;;5.90;;
6840;SDS011;3458;53.678;14.080;2024-02-21T00:38:18;26.40;;;7.00;;
6840;SDS011;3458;53.678;14.080;2024-02-21T00:40:44;28.53;;;6.30;;
6840;SDS011;3458;53.678;14.080;2024-02-21T00:43:09;29.90;;;5.93;;
6840;SDS011;3458;53.678;14.080;2024-02-21T00:45:35;29.50;;;6.17;;
6840;SDS011;3458;53.678;14.080;2024-02-21T00:48:00;25.90;;;6.27;;
6840;SDS011;3458;53.678;14.080;2024-02-21T00:50:26;42.47;;;5.97;;
6840;SDS011;3458;53.678;14.080;2024-02-21T00:52:51;31.77;;;7.07;;
6840;SDS011;3458;53.678;14.080;2024-02-21T00:55:17;24.90;;;6.40;;
6840;SDS011;3458;53.678;14.080;2024-02-21T00:57:42;31.33;;;8.13;;
6840;SDS011;3458;53.678;14.080;2024-02-21T01:00:08;26.50;;;7.90;;
6840;SDS011;3458;53.678;14.080;2024-02-21T01:02:34;18.73;;;7.40;;
6840;SDS011;3458;53.678;14.080;2024-02-21T01:04:59;22.77;;;5.80;;
6840;SDS011;3458;53.678;14.080;2024-02-21T01:07:25;30.57;;;7.47;;
6840;SDS011;3458;53.678;14.080;2024-02-21T01:09:50;23.83;;;5.57;;
6840;SDS011;3458;53.678;14.080;2024-02-21T01:12:16;21.03;;;6.90;;
6840;SDS011;3458;53.678;14.080;2024-02-21T01:14:42;41.07;;;7.07;;
6840;SDS011;3458;53.678;14.080;2024-02-21T01:17:07;20.17;;;6.80;;
6840;SDS011;3458;53.678;14.080;2024-02-21T01:19:33;32.47;;;8.30;;
6840;SDS011;3458;53.678;14.080;2024-02-21T01:21:58;27.23;;;6.43;;
6840;SDS011;3458;53.678;14.080;2024-02-21T01:24:24;27.20;;;6.50;;
6840;SDS011;3458;53.678;14.080;2024-02-21T01:26:49;37.20;;;8.70;;
6840;SDS011;3458;53.678;14.080;2024-02-21T01:29:15;35.53;;;8.50;;
6840;SDS011;3458;53.678;14.080;2024-02-21T01:31:40;35.30;;;7.60;;
6840;SDS011;3458;53.678;14.080;2024-02-21T01:34:06;25.97;;;6.67;;
6840;SDS011;3458;53.678;14.080;2024-02-21T01:36:31;36.77;;;7.50;;
6840;SDS011;3458;53.678;14.080;2024-02-21T01:38:57;29.30;;;7.27;;
6840;SDS011;3458;53.678;14.080;2024-02-21T01:41:23;25.67;;;6.80;;
6840;SDS011;3458;53.678;14.080;2024-02-21T01:43:48;45.43;;;9.33;;
6840;SDS011;3458;53.678;14.080;2024-02-21T01:46:14;19.73;;;7.10;;
6840;SDS011;3458;53.678;14.080;2024-02-21T01:48:39;21.87;;;6.63;;
6840;SDS011;3458;53.678;14.080;2024-02-21T01:51:05;45.00;;;8.27;;
6840;SDS011;3458;53.678;14.080;2024-02-21T01:53:32;25.07;;;8.40;;
6840;SDS011;3458;53.678;14.080;2024-02-21T01:56:02;25.07;;;8.73;;
6840;SDS011;3458;53.678;14.080;2024-02-21T01:58:30;26.67;;;8.50;;
6840;SDS011;3458;53.678;14.080;2024-02-21T02:00:57;43.30;;;10.07;;
6840;SDS011;3458;53.678;14.080;2024-02-21T02:03:23;37.73;;;9.23;;
6840;SDS011;3458;53.678;14.080;2024-02-21T02:05:50;34.77;;;10.17;;
6840;SDS011;3458;53.678;14.080;2024-02-21T02:08:16;29.53;;;9.40;;
6840;SDS011;3458;53.678;14.080;2024-02-21T02:10:43;30.93;;;8.97;;
6840;SDS011;3458;53.678;14.080;2024-02-21T02:13:09;33.77;;;12.30;;
6840;SDS011;3458;53.678;14.080;2024-02-21T02:15:39;49.17;;;11.03;;
6840;SDS011;3458;53.678;14.080;2024-02-21T02:18:08;41.83;;;11.53;;
6840;SDS011;3458;53.678;14.080;2024-02-21T02:20:37;39.40;;;10.73;;
6840;SDS011;3458;53.678;14.080;2024-02-21T02:23:06;50.97;;;11.63;;
6840;SDS011;3458;53.678;14.080;2024-02-21T02:25:36;51.43;;;13.20;;
6840;SDS011;3458;53.678;14.080;2024-02-21T02:28:03;36.53;;;11.50;;
6840;SDS011;3458;53.678;14.080;2024-02-21T02:30:33;30.43;;;12.30;;
6840;SDS011;3458;53.678;14.080;2024-02-21T02:33:03;44.27;;;13.10;;
6840;SDS011;3458;53.678;14.080;2024-02-21T02:35:29;41.33;;;12.43;;
6840;SDS011;3458;53.678;14.080;2024-02-21T02:37:55;45.33;;;13.07;;
6840;SDS011;3458;53.678;14.080;2024-02-21T02:40:20;41.90;;;12.47;;
6840;SDS011;3458;53.678;14.080;2024-02-21T02:42:46;36.50;;;12.03;;
6840;SDS011;3458;53.678;14.080;2024-02-21T02:45:13;47.37;;;12.60;;
6840;SDS011;3458;53.678;14.080;2024-02-21T02:47:44;42.27;;;12.23;;
6840;SDS011;3458;53.678;14.080;2024-02-21T02:50:11;40.23;;;11.70;;
6840;SDS011;3458;53.678;14.080;2024-02-21T02:52:36;58.00;;;13.20;;
6840;SDS011;3458;53.678;14.080;2024-02-21T02:55:02;41.20;;;11.80;;
6840;SDS011;3458;53.678;14.080;2024-02-21T02:57:28;29.50;;;11.63;;
6840;SDS011;3458;53.678;14.080;2024-02-21T02:59:53;37.40;;;12.00;;
6840;SDS011;3458;53.678;14.080;2024-02-21T03:02:19;36.13;;;10.77;;
6840;SDS011;3458;53.678;14.080;2024-02-21T03:04:44;48.30;;;12.60;;
6840;SDS011;3458;53.678;14.080;2024-02-21T03:07:10;46.93;;;12.87;;
6840;SDS011;3458;53.678;14.080;2024-02-21T03:09:37;44.30;;;13.60;;
6840;SDS011;3458;53.678;14.080;2024-02-21T03:12:03;37.37;;;12.17;;
6840;SDS011;3458;53.678;14.080;2024-02-21T03:14:29;35.70;;;13.43;;
6840;SDS011;3458;53.678;14.080;2024-02-21T03:16:55;33.10;;;13.80;;
6840;SDS011;3458;53.678;14.080;2024-02-21T03:19:20;53.67;;;14.10;;
6840;SDS011;3458;53.678;14.080;2024-02-21T03:21:46;27.87;;;11.67;;
6840;SDS011;3458;53.678;14.080;2024-02-21T03:24:11;64.67;;;15.53;;
6840;SDS011;3458;53.678;14.080;2024-02-21T03:26:37;36.27;;;13.50;;
6840;SDS011;3458;53.678;14.080;2024-02-21T03:29:03;30.07;;;12.10;;
6840;SDS011;3458;53.678;14.080;2024-02-21T03:31:28;42.80;;;12.73;;
6840;SDS011;3458;53.678;14.080;2024-02-21T03:33:54;33.47;;;11.60;;
6840;SDS011;3458;53.678;14.080;2024-02-21T03:36:20;31.00;;;11.70;;
6840;SDS011;3458;53.678;14.080;2024-02-21T03:38:45;31.57;;;11.83;;
6840;SDS011;3458;53.678;14.080;2024-02-21T03:41:11;47.33;;;13.20;;
6840;SDS011;3458;53.678;14.080;2024-02-21T03:43:39;37.97;;;11.67;;
6840;SDS011;3458;53.678;14.080;2024-02-21T03:46:05;44.83;;;12.60;;
6840;SDS011;3458;53.678;14.080;2024-02-21T03:48:31;40.90;;;13.10;;
6840;SDS011;3458;53.678;14.080;2024-02-21T03:50:57;36.43;;;12.00;;
6840;SDS011;3458;53.678;14.080;2024-02-21T03:53:23;31.53;;;12.53;;
6840;SDS011;3458;53.678;14.080;2024-02-21T03:55:48;40.43;;;11.50;;
6840;SDS011;3458;53.678;14.080;2024-02-21T03:58:14;44.00;;;11.20;;
6840;SDS011;3458;53.678;14.080;2024-02-21T04:00:39;36.73;;;13.00;;
6840;SDS011;3458;53.678;14.080;2024-02-21T04:03:04;35.30;;;13.70;;
6840;SDS011;3458;53.678;14.080;2024-02-21T04:05:31;43.33;;;12.63;;
6840;SDS011;3458;53.678;14.080;2024-02-21T04:07:57;41.70;;;12.00;;
6840;SDS011;3458;53.678;14.080;2024-02-21T04:10:22;40.93;;;12.83;;
6840;SDS011;3458;53.678;14.080;2024-02-21T04:12:47;39.17;;;12.13;;
6840;SDS011;3458;53.678;14.080;2024-02-21T04:15:15;34.93;;;12.47;;
6840;SDS011;3458;53.678;14.080;2024-02-21T04:17:44;39.13;;;13.37;;
6840;SDS011;3458;53.678;14.080;2024-02-21T04:20:13;34.90;;;12.33;;
6840;SDS011;3458;53.678;14.080;2024-02-21T04:22:40;28.77;;;10.53;;
6840;SDS011;3458;53.678;14.080;2024-02-21T04:25:06;36.77;;;13.00;;
6840;SDS011;3458;53.678;14.080;2024-02-21T04:27:31;34.97;;;11.90;;
6840;SDS011;3458;53.678;14.080;2024-02-21T04:29:57;34.40;;;12.23;;
6840;SDS011;3458;53.678;14.080;2024-02-21T04:32:22;45.27;;;11.40;;
6840;SDS011;3458;53.678;14.080;2024-02-21T04:34:48;28.13;;;10.27;;
6840;SDS011;3458;53.678;14.080;2024-02-21T04:37:14;31.63;;;12.03;;
6840;SDS011;3458;53.678;14.080;2024-02-21T04:39:39;39.80;;;12.33;;
6840;SDS011;3458;53.678;14.080;2024-02-21T04:42:05;26.03;;;10.40;;
6840;SDS011;3458;53.678;14.080;2024-02-21T04:44:30;33.07;;;10.17;;
6840;SDS011;3458;53.678;14.080;2024-02-21T04:46:56;52.00;;;11.90;;
6840;SDS011;3458;53.678;14.080;2024-02-21T04:49:21;27.43;;;10.27;;
6840;SDS011;3458;53.678;14.080;2024-02-21T04:51:47;30.40;;;10.27;;
6840;SDS011;3458;53.678;14.080;2024-02-21T04:54:12;27.07;;;10.67;;
6840;SDS011;3458;53.678;14.080;2024-02-21T04:56:38;52.13;;;12.40;;
6840;SDS011;3458;53.678;14.080;2024-02-21T04:59:03;27.87;;;12.10;;
6840;SDS011;3458;53.678;14.080;2024-02-21T05:01:29;31.17;;;12.23;;
6840;SDS011;3458;53.678;14.080;2024-02-21T05:03:54;39.40;;;11.90;;
6840;SDS011;3458;53.678;14.080;2024-02-21T05:06:20;47.17;;;13.40;;
6840;SDS011;3458;53.678;14.080;2024-02-21T05:08:45;38.00;;;13.00;;
6840;SDS011;3458;53.678;14.080;2024-02-21T05:11:11;43.50;;;12.20;;
6840;SDS011;3458;53.678;14.080;2024-02-21T05:13:37;47.20;;;13.03;;
6840;SDS011;3458;53.678;14.080;2024-02-21T05:16:02;34.77;;;11.87;;
6840;SDS011;3458;53.678;14.080;2024-02-21T05:18:28;30.63;;;11.87;;
6840;SDS011;3458;53.678;14.080;2024-02-21T05:20:53;38.33;;;12.83;;
6840;SDS011;3458;53.678;14.080;2024-02-21T05:23:19;26.33;;;10.50;;
6840;SDS011;3458;53.678;14.080;2024-02-21T05:25:44;40.10;;;12.30;;
6840;SDS011;3458;53.678;14.080;2024-02-21T05:28:10;31.63;;;13.40;;
6840;SDS011;3458;53.678;14.080;2024-02-21T05:30:36;34.67;;;12.30;;
6840;SDS011;3458;53.678;14.080;2024-02-21T05:33:05;33.03;;;11.70;;
6840;SDS011;3458;53.678;14.080;2024-02-21T05:35:31;28.63;;;10.60;;
6840;SDS011;3458;53.678;14.080;2024-02-21T05:37:56;25.60;;;10.93;;
6840;SDS011;3458;53.678;14.080;2024-02-21T05:40:22;35.17;;;11.10;;
6840;SDS011;3458;53.678;14.080;2024-02-21T05:42:48;26.73;;;11.63;;
6840;SDS011;3458;53.678;14.080;2024-02-21T05:45:13;32.60;;;12.10;;
6840;SDS011;3458;53.678;14.080;2024-02-21T05:47:40;31.00;;;12.07;;
6840;SDS011;3458;53.678;14.080;2024-02-21T05:50:06;27.77;;;11.97;;
6840;SDS011;3458;53.678;14.080;2024-02-21T05:52:31;23.90;;;11.83;;
6840;SDS011;3458;53.678;14.080;2024-02-21T05:54:57;30.13;;;11.87;;
6840;SDS011;3458;53.678;14.080;2024-02-21T05:57:22;34.57;;;12.63;;
6840;SDS011;3458;53.678;14.080;2024-02-21T05:59:48;32.13;;;12.67;;
6840;SDS011;3458;53.678;14.080;2024-02-21T06:02:13;27.13;;;11.30;;
6840;SDS011;3458;53.678;14.080;2024-02-21T06:04:39;32.10;;;12.43;;
6840;SDS011;3458;53.678;14.080;2024-02-21T06:07:05;25.50;;;11.47;;
6840;SDS011;3458;53.678;14.080;2024-02-21T06:09:30;24.20;;;10.90;;
6840;SDS011;3458;53.678;14.080;2024-02-21T06:11:57;29.10;;;11.40;;
6840;SDS011;3458;53.678;14.080;2024-02-21T06:14:22;22.00;;;10.90;;
6840;SDS011;3458;53.678;14.080;2024-02-21T06:16:47;30.53;;;11.10;;
6840;SDS011;3458;53.678;14.080;2024-02-21T06:19:13;31.53;;;11.30;;
6840;SDS011;3458;53.678;14.080;2024-02-21T06:21:38;26.27;;;13.50;;
6840;SDS011;3458;53.678;14.080;2024-02-21T06:24:04;24.07;;;10.33;;
6840;SDS011;3458;53.678;14.080;2024-02-21T06:26:30;22.30;;;10.73;;
6840;SDS011;3458;53.678;14.080;2024-02-21T06:28:55;26.03;;;11.10;;
6840;SDS011;3458;53.678;14.080;2024-02-21T06:31:21;21.73;;;10.90;;
6840;SDS011;3458;53.678;14.080;2024-02-21T06:33:46;26.40;;;11.47;;
6840;SDS011;3458;53.678;14.080;2024-02-21T06:36:12;25.17;;;12.60;;
6840;SDS011;3458;53.678;14.080;2024-02-21T06:38:37;27.20;;;12.10;;
6840;SDS011;3458;53.678;14.080;2024-02-21T06:41:03;22.97;;;10.50;;
6840;SDS011;3458;53.678;14.080;2024-02-21T06:43:29;25.40;;;11.30;;
6840;SDS011;3458;53.678;14.080;2024-02-21T06:45:54;24.13;;;11.07;;
6840;SDS011;3458;53.678;14.080;2024-02-21T06:48:21;24.03;;;10.30;;
6840;SDS011;3458;53.678;14.080;2024-02-21T06:50:47;23.63;;;12.03;;
6840;SDS011;3458;53.678;14.080;2024-02-21T06:53:12;21.70;;;11.40;;
6840;SDS011;3458;53.678;14.080;2024-02-21T06:55:38;23.77;;;11.80;;
6840;SDS011;3458;53.678;14.080;2024-02-21T06:58:04;22.23;;;10.57;;
6840;SDS011;3458;53.678;14.080;2024-02-21T07:00:29;29.37;;;10.87;;
6840;SDS011;3458;53.678;14.080;2024-02-21T07:02:55;23.30;;;11.70;;
6840;SDS011;3458;53.678;14.080;2024-02-21T07:05:20;16.37;;;9.20;;
6840;SDS011;3458;53.678;14.080;2024-02-21T07:07:47;30.87;;;11.00;;
6840;SDS011;3458;53.678;14.080;2024-02-21T07:10:12;24.60;;;11.30;;
6840;SDS011;3458;53.678;14.080;2024-02-21T07:12:38;29.93;;;10.70;;
6840;SDS011;3458;53.678;14.080;2024-02-21T07:15:06;18.23;;;10.70;;
6840;SDS011;3458;53.678;14.080;2024-02-21T07:17:32;26.47;;;11.37;;
6840;SDS011;3458;53.678;14.080;2024-02-21T07:19:58;28.60;;;11.60;;
6840;SDS011;3458;53.678;14.080;2024-02-21T07:22:24;20.67;;;10.10;;
6840;SDS011;3458;53.678;14.080;2024-02-21T07:24:49;21.13;;;11.57;;
6840;SDS011;3458;53.678;14.080;2024-02-21T07:27:15;21.50;;;10.30;;
6840;SDS011;3458;53.678;14.080;2024-02-21T07:29:41;22.40;;;10.03;;
6840;SDS011;3458;53.678;14.080;2024-02-21T07:32:07;22.00;;;12.37;;
6840;SDS011;3458;53.678;14.080;2024-02-21T07:34:33;31.73;;;10.27;;
6840;SDS011;3458;53.678;14.080;2024-02-21T07:36:58;21.97;;;10.70;;
6840;SDS011;3458;53.678;14.080;2024-02-21T07:39:23;16.80;;;10.47;;
6840;SDS011;3458;53.678;14.080;2024-02-21T07:41:49;23.23;;;11.13;;
6840;SDS011;3458;53.678;14.080;2024-02-21T07:44:15;17.83;;;9.70;;
6840;SDS011;3458;53.678;14.080;2024-02-21T07:46:40;30.73;;;11.00;;
6840;SDS011;3458;53.678;14.080;2024-02-21T07:49:06;24.23;;;11.10;;
6840;SDS011;3458;53.678;14.080;2024-02-21T07:51:31;19.57;;;10.83;;
6840;SDS011;3458;53.678;14.080;2024-02-21T07:53:57;17.40;;;9.73;;
6840;SDS011;3458;53.678;14.080;2024-02-21T07:56:22;25.27;;;10.10;;
6840;SDS011;3458;53.678;14.080;2024-02-21T07:58:48;23.93;;;11.63;;
6840;SDS011;3458;53.678;14.080;2024-02-21T08:01:20;27.47;;;12.03;;
6840;SDS011;3458;53.678;14.080;2024-02-21T08:03:46;22.33;;;11.83;;
6840;SDS011;3458;53.678;14.080;2024-02-21T08:06:11;21.10;;;9.90;;
6840;SDS011;3458;53.678;14.080;2024-02-21T08:08:38;30.67;;;11.33;;
6840;SDS011;3458;53.678;14.080;2024-02-21T08:11:03;21.90;;;10.90;;
6840;SDS011;3458;53.678;14.080;2024-02-21T08:13:29;18.47;;;10.03;;
6840;SDS011;3458;53.678;14.080;2024-02-21T08:15:54;19.77;;;10.20;;
6840;SDS011;3458;53.678;14.080;2024-02-21T08:18:20;27.53;;;10.80;;
6840;SDS011;3458;53.678;14.080;2024-02-21T08:20:45;22.73;;;10.63;;
6840;SDS011;3458;53.678;14.080;2024-02-21T08:23:11;23.97;;;11.33;;
6840;SDS011;3458;53.678;14.080;2024-02-21T08:25:37;23.50;;;11.00;;
6840;SDS011;3458;53.678;14.080;2024-02-21T08:28:02;36.00;;;12.47;;
6840;SDS011;3458;53.678;14.080;2024-02-21T08:30:30;25.23;;;11.23;;
6840;SDS011;3458;53.678;14.080;2024-02-21T08:32:55;23.03;;;12.23;;
6840;SDS011;3458;53.678;14.080;2024-02-21T08:35:21;30.23;;;12.40;;
6840;SDS011;3458;53.678;14.080;2024-02-21T08:37:47;29.03;;;13.23;;
6840;SDS011;3458;53.678;14.080;2024-02-21T08:40:13;25.07;;;12.23;;
6840;SDS011;3458;53.678;14.080;2024-02-21T08:42:42;25.93;;;12.07;;
6840;SDS011;3458;53.678;14.080;2024-02-21T08:45:08;31.83;;;12.83;;
6840;SDS011;3458;53.678;14.080;2024-02-21T08:47:34;23.33;;;11.87;;
6840;SDS011;3458;53.678;14.080;2024-02-21T08:50:03;22.73;;;11.63;;
6840;SDS011;3458;53.678;14.080;2024-02-21T08:52:28;25.10;;;12.50;;
6840;SDS011;3458;53.678;14.080;2024-02-21T08:54:54;29.77;;;14.37;;
6840;SDS011;3458;53.678;14.080;2024-02-21T08:57:19;26.20;;;12.30;;
6840;SDS011;3458;53.678;14.080;2024-02-21T08:59:45;26.40;;;14.00;;
6840;SDS011;3458;53.678;14.080;2024-02-21T09:02:12;32.73;;;14.50;;
6840;SDS011;3458;53.678;14.080;2024-02-21T09:04:38;23.40;;;12.50;;
6840;SDS011;3458;53.678;14.080;2024-02-21T09:07:03;32.30;;;13.03;;
6840;SDS011;3458;53.678;14.080;2024-02-21T09:09:29;21.27;;;11.50;;
6840;SDS011;3458;53.678;14.080;2024-02-21T09:11:54;23.87;;;11.07;;
6840;SDS011;3458;53.678;14.080;2024-02-21T09:14:20;28.07;;;12.10;;
6840;SDS011;3458;53.678;14.080;2024-02-21T09:16:45;25.77;;;11.23;;
6840;SDS011;3458;53.678;14.080;2024-02-21T09:19:11;18.63;;;11.47;;
6840;SDS011;3458;53.678;14.080;2024-02-21T09:21:39;25.47;;;11.20;;
6840;SDS011;3458;53.678;14.080;2024-02-21T09:24:05;20.23;;;11.30;;
6840;SDS011;3458;53.678;14.080;2024-02-21T09:26:31;22.90;;;10.53;;
6840;SDS011;3458;53.678;14.080;2024-02-21T09:28:56;24.80;;;11.10;;
6840;SDS011;3458;53.678;14.080;2024-02-21T09:31:22;25.73;;;10.90;;
6840;SDS011;3458;53.678;14.080;2024-02-21T09:33:48;21.00;;;10.73;;
6840;SDS011;3458;53.678;14.080;2024-02-21T09:36:13;21.53;;;11.13;;
6840;SDS011;3458;53.678;14.080;2024-02-21T09:38:39;18.00;;;10.53;;
6840;SDS011;3458;53.678;14.080;2024-02-21T09:41:15;16.90;;;8.57;;
6840;SDS011;3458;53.678;14.080;2024-02-21T09:43:45;20.03;;;9.87;;
6840;SDS011;3458;53.678;14.080;2024-02-21T09:46:15;16.53;;;10.00;;
6840;SDS011;3458;53.678;14.080;2024-02-21T09:51:30;21.80;;;10.67;;
6840;SDS011;3458;53.678;14.080;2024-02-21T09:53:57;21.40;;;9.57;;
6840;SDS011;3458;53.678;14.080;2024-02-21T09:56:24;24.20;;;9.83;;
6840;SDS011;3458;53.678;14.080;2024-02-21T09:58:49;21.13;;;9.10;;
6840;SDS011;3458;53.678;14.080;2024-02-21T10:01:15;16.03;;;8.13;;
6840;SDS011;3458;53.678;14.080;2024-02-21T10:03:41;13.50;;;7.53;;
6840;SDS011;3458;53.678;14.080;2024-02-21T10:06:08;18.00;;;9.30;;
6840;SDS011;3458;53.678;14.080;2024-02-21T10:08:34;16.30;;;7.90;;
6840;SDS011;3458;53.678;14.080;2024-02-21T10:10:59;15.70;;;7.97;;
6840;SDS011;3458;53.678;14.080;2024-02-21T10:13:27;18.05;;;9.50;;
6840;SDS011;3458;53.678;14.080;2024-02-21T10:16:06;15.43;;;7.20;;
6840;SDS011;3458;53.678;14.080;2024-02-21T10:18:33;16.20;;;8.45;;
6840;SDS011;3458;53.678;14.080;2024-02-21T10:21:00;12.23;;;6.67;;
6840;SDS011;3458;53.678;14.080;2024-02-21T10:23:26;12.87;;;6.17;;
6840;SDS011;3458;53.678;14.080;2024-02-21T10:25:51;9.57;;;6.87;;
6840;SDS011;3458;53.678;14.080;2024-02-21T10:28:17;13.30;;;6.43;;
6840;SDS011;3458;53.678;14.080;2024-02-21T10:30:51;10.27;;;5.60;;
6840;SDS011;3458;53.678;14.080;2024-02-21T10:33:17;12.37;;;7.33;;
6840;SDS011;3458;53.678;14.080;2024-02-21T10:35:45;8.93;;;5.93;;
6840;SDS011;3458;53.678;14.080;2024-02-21T10:38:11;13.18;;;7.03;;
6840;SDS011;3458;53.678;14.080;2024-02-21T10:40:37;9.90;;;5.97;;
6840;SDS011;3458;53.678;14.080;2024-02-21T10:43:02;10.23;;;5.50;;
6840;SDS011;3458;53.678;14.080;2024-02-21T10:45:32;8.93;;;5.73;;
6840;SDS011;3458;53.678;14.080;2024-02-21T10:48:10;10.60;;;7.50;;
6840;SDS011;3458;53.678;14.080;2024-02-21T10:53:36;8.27;;;5.00;;
6840;SDS011;3458;53.678;14.080;2024-02-21T10:56:22;13.73;;;6.13;;
6840;SDS011;3458;53.678;14.080;2024-02-21T10:58:52;12.37;;;6.13;;
6840;SDS011;3458;53.678;14.080;2024-02-21T11:01:18;12.57;;;5.83;;
6840;SDS011;3458;53.678;14.080;2024-02-21T11:03:45;8.47;;;5.23;;
6840;SDS011;3458;53.678;14.080;2024-02-21T11:06:12;10.60;;;5.17;;
6840;SDS011;3458;53.678;14.080;2024-02-21T11:08:38;10.77;;;5.00;;
6840;SDS011;3458;53.678;14.080;2024-02-21T11:11:04;11.00;;;4.77;;
6840;SDS011;3458;53.678;14.080;2024-02-21T11:13:36;8.63;;;5.90;;
6840;SDS011;3458;53.678;14.080;2024-02-21T11:16:05;10.03;;;5.87;;
6840;SDS011;3458;53.678;14.080;2024-02-21T11:18:32;6.40;;;5.17;;
6840;SDS011;3458;53.678;14.080;2024-02-21T11:20:58;7.63;;;5.40;;
6840;SDS011;3458;53.678;14.080;2024-02-21T11:23:24;9.80;;;5.17;;
6840;SDS011;3458;53.678;14.080;2024-02-21T11:25:50;7.50;;;5.20;;
6840;SDS011;3458;53.678;14.080;2024-02-21T11:28:16;5.60;;;4.90;;
6840;SDS011;3458;53.678;14.080;2024-02-21T11:30:50;10.57;;;5.00;;
6840;SDS011;3458;53.678;14.080;2024-02-21T11:33:16;9.17;;;4.40;;
6840;SDS011;3458;53.678;14.080;2024-02-21T11:35:42;9.50;;;4.50;;
6840;SDS011;3458;53.678;14.080;2024-02-21T11:38:11;4.93;;;4.20;;
6840;SDS011;3458;53.678;14.080;2024-02-21T11:40:41;15.03;;;5.33;;
6840;SDS011;3458;53.678;14.080;2024-02-21T11:43:09;6.00;;;3.60;;
6840;SDS011;3458;53.678;14.080;2024-02-21T11:45:35;11.93;;;4.50;;
6840;SDS011;3458;53.678;14.080;2024-02-21T11:48:00;4.97;;;3.00;;
6840;SDS011;3458;53.678;14.080;2024-02-21T11:50:28;7.53;;;3.27;;
6840;SDS011;3458;53.678;14.080;2024-02-21T11:52:54;5.80;;;3.20;;
6840;SDS011;3458;53.678;14.080;2024-02-21T11:55:20;8.03;;;3.80;;
6840;SDS011;3458;53.678;14.080;2024-02-21T11:57:49;3.87;;;3.23;;
6840;SDS011;3458;53.678;14.080;2024-02-21T12:00:16;6.20;;;3.50;;
6840;SDS011;3458;53.678;14.080;2024-02-21T12:02:45;3.47;;;2.83;;
6840;SDS011;3458;53.678;14.080;2024-02-21T12:05:11;4.03;;;2.93;;
6840;SDS011;3458;53.678;14.080;2024-02-21T12:07:36;3.40;;;2.97;;
6840;SDS011;3458;53.678;14.080;2024-02-21T12:10:08;4.07;;;3.70;;
6840;SDS011;3458;53.678;14.080;2024-02-21T12:12:35;6.00;;;3.47;;
6840;SDS011;3458;53.678;14.080;2024-02-21T12:15:02;3.73;;;3.33;;
6840;SDS011;3458;53.678;14.080;2024-02-21T12:17:34;5.80;;;3.03;;
6840;SDS011;3458;53.678;14.080;2024-02-21T12:20:04;3.50;;;3.00;;
6840;SDS011;3458;53.678;14.080;2024-02-21T12:22:31;4.40;;;3.20;;
6840;SDS011;3458;53.678;14.080;2024-02-21T12:24:57;4.60;;;3.40;;
6840;SDS011;3458;53.678;14.080;2024-02-21T12:27:23;5.40;;;3.53;;
6840;SDS011;3458;53.678;14.080;2024-02-21T12:29:50;5.90;;;3.80;;
6840;SDS011;3458;53.678;14.080;2024-02-21T12:32:15;4.33;;;3.70;;
6840;SDS011;3458;53.678;14.080;2024-02-21T12:34:41;7.87;;;4.00;;
6840;SDS011;3458;53.678;14.080;2024-02-21T12:37:06;7.47;;;4.60;;
6840;SDS011;3458;53.678;14.080;2024-02-21T12:39:32;8.00;;;4.10;;
6840;SDS011;3458;53.678;14.080;2024-02-21T12:41:57;3.77;;;3.37;;
6840;SDS011;3458;53.678;14.080;2024-02-21T12:44:23;3.77;;;3.07;;
6840;SDS011;3458;53.678;14.080;2024-02-21T12:46:49;7.93;;;3.40;;
6840;SDS011;3458;53.678;14.080;2024-02-21T12:49:17;5.27;;;3.33;;
6840;SDS011;3458;53.678;14.080;2024-02-21T12:51:43;7.03;;;3.27;;
6840;SDS011;3458;53.678;14.080;2024-02-21T12:54:11;3.97;;;2.57;;
6840;SDS011;3458;53.678;14.080;2024-02-21T12:56:37;4.67;;;2.63;;
6840;SDS011;3458;53.678;14.080;2024-02-21T12:59:02;2.73;;;2.50;;
6840;SDS011;3458;53.678;14.080;2024-02-21T13:01:28;2.83;;;2.53;;
6840;SDS011;3458;53.678;14.080;2024-02-21T13:03:53;8.43;;;2.73;;
6840;SDS011;3458;53.678;14.080;2024-02-21T13:06:20;4.57;;;2.80;;
6840;SDS011;3458;53.678;14.080;2024-02-21T13:08:46;4.73;;;3.07;;
6840;SDS011;3458;53.678;14.080;2024-02-21T13:11:12;3.50;;;2.50;;
6840;SDS011;3458;53.678;14.080;2024-02-21T13:13:37;2.80;;;2.50;;
6840;SDS011;3458;53.678;14.080;2024-02-21T13:16:03;2.00;;;1.80;;
6840;SDS011;3458;53.678;14.080;2024-02-21T13:18:29;2.03;;;1.93;;
6840;SDS011;3458;53.678;14.080;2024-02-21T13:20:55;2.40;;;2.20;;
6840;SDS011;3458;53.678;14.080;2024-02-21T13:23:20;4.40;;;2.20;;
6840;SDS011;3458;53.678;14.080;2024-02-21T13:25:46;3.67;;;2.47;;
6840;SDS011;3458;53.678;14.080;2024-02-21T13:28:12;2.67;;;2.30;;
6840;SDS011;3458;53.678;14.080;2024-02-21T13:30:38;6.30;;;3.10;;
6840;SDS011;3458;53.678;14.080;2024-02-21T13:33:05;3.10;;;2.37;;
6840;SDS011;3458;53.678;14.080;2024-02-21T13:35:31;3.03;;;2.20;;
6840;SDS011;3458;53.678;14.080;2024-02-21T13:37:57;2.20;;;1.93;;
6840;SDS011;3458;53.678;14.080;2024-02-21T13:40:22;4.03;;;2.00;;
6840;SDS011;3458;53.678;14.080;2024-02-21T13:42:48;3.30;;;2.23;;
6840;SDS011;3458;53.678;14.080;2024-02-21T13:45:14;2.40;;;2.20;;
6840;SDS011;3458;53.678;14.080;2024-02-21T13:47:40;3.27;;;2.40;;
6840;SDS011;3458;53.678;14.080;2024-02-21T13:50:05;1.87;;;1.77;;
6840;SDS011;3458;53.678;14.080;2024-02-21T13:52:53;2.47;;;1.83;;
6840;SDS011;3458;53.678;14.080;2024-02-21T13:55:19;4.13;;;2.53;;
6840;SDS011;3458;53.678;14.080;2024-02-21T13:57:47;4.00;;;2.27;;
6840;SDS011;3458;53.678;14.080;2024-02-21T14:00:13;4.30;;;2.63;;
6840;SDS011;3458;53.678;14.080;2024-02-21T14:02:38;5.93;;;2.60;;
6840;SDS011;3458;53.678;14.080;2024-02-21T14:05:04;3.13;;;2.80;;
6840;SDS011;3458;53.678;14.080;2024-02-21T14:07:31;2.60;;;2.40;;
6840;SDS011;3458;53.678;14.080;2024-02-21T14:09:58;4.33;;;2.33;;
6840;SDS011;3458;53.678;14.080;2024-02-21T14:12:23;3.33;;;2.40;;
6840;SDS011;3458;53.678;14.080;2024-02-21T14:14:49;2.37;;;2.17;;
6840;SDS011;3458;53.678;14.080;2024-02-21T14:17:15;4.77;;;2.60;;
6840;SDS011;3458;53.678;14.080;2024-02-21T14:19:46;3.10;;;2.40;;
6840;SDS011;3458;53.678;14.080;2024-02-21T14:22:12;4.80;;;3.10;;
6840;SDS011;3458;53.678;14.080;2024-02-21T14:24:37;3.70;;;2.80;;
6840;SDS011;3458;53.678;14.080;2024-02-21T14:27:03;4.13;;;3.10;;
6840;SDS011;3458;53.678;14.080;2024-02-21T14:29:29;5.33;;;2.73;;
6840;SDS011;3458;53.678;14.080;2024-02-21T14:31:54;3.07;;;2.77;;
6840;SDS011;3458;53.678;14.080;2024-02-21T14:34:20;3.00;;;2.50;;
6840;SDS011;3458;53.678;14.080;2024-02-21T14:36:45;2.83;;;2.07;;
6840;SDS011;3458;53.678;14.080;2024-02-21T14:39:11;2.97;;;2.50;;
6840;SDS011;3458;53.678;14.080;2024-02-21T14:41:36;3.30;;;2.23;;
6840;SDS011;3458;53.678;14.080;2024-02-21T14:44:02;2.13;;;1.93;;